Belmont, Maine
Current Conditions -  °F | °C
As of 12:15 PM on Friday 28 Nov 2014 (Local Time) from KRKD Reporting Station
Clear Clear  
Wind Chill: 28°   Ceiling: Unl
Heat Index: 28°   Visibility: 10mi
Dew Point: 16°   Wind: 3mph
Humidity: 59%   Direction: 360°N
Pressure: 30.01"   Gusts: NA
Location:  44.4103°N, 69.1515°W
Report Text: KRKD 281715Z AUTO 36003KT 10SM CLR M02/M09 A3001 RMK AO1
Loading
Personal Weather Stations






























Interactive Weather Map New forecast layout! Learn more

10-Day Weather Forecast

Advertisements
Track Severe Weather on mobile